Time;durP1;ratioP1;P1;durP2;ratioP2;P2;SDS_P1;SDS_P2;PMS_P1;PMS_P2;Temp;Humidity;BMP_temperature;BMP_pressure;BME280_temperature;BME280_humidity;BME280_pressure;Samples;Min_cycle;Max_cycle;Signal;HPM_P1;HPM_P2
2022/08/22 00:02:08;;;;;;;5.78;2.90;;;16.00;99.90;;;;;;5034993;28;20501;-82
2022/08/22 00:05:16;;;;;;;7.70;3.30;;;16.00;99.90;;;;;;5068229;28;20052;-82
2022/08/22 00:08:00;;;;;;;10.55;3.35;;;16.20;99.90;;;;;;5034418;28;20041;-81
2022/08/22 00:11:02;;;;;;;10.45;3.35;;;16.20;99.90;;;;;;5052690;28;20052;-83
2022/08/22 00:13:46;;;;;;;8.73;3.40;;;16.30;99.90;;;;;;5037059;28;20045;-83
2022/08/22 00:16:22;;;;;;;8.20;2.75;;;16.30;99.90;;;;;;5071674;28;20063;-81
2022/08/22 00:19:17;;;;;;;8.73;3.22;;;16.30;99.90;;;;;;5054445;28;20058;-83
2022/08/22 00:21:56;;;;;;;8.40;3.22;;;16.40;99.90;;;;;;5054190;28;20049;-83
2022/08/22 00:24:46;;;;;;;9.43;3.55;;;16.40;99.90;;;;;;5053781;28;20040;-83
2022/08/22 00:27:18;;;;;;;7.95;3.78;;;16.40;99.90;;;;;;5071245;28;20084;-83
2022/08/22 00:29:53;;;;;;;9.13;3.70;;;16.40;99.90;;;;;;5049006;28;20052;-83
2022/08/22 00:32:23;;;;;;;9.73;3.58;;;16.40;99.90;;;;;;5050803;28;20044;-82
2022/08/22 00:35:04;;;;;;;9.50;3.90;;;16.50;99.90;;;;;;5034194;28;20120;-83
2022/08/22 00:37:41;;;;;;;7.78;3.50;;;16.50;99.90;;;;;;5034527;28;20040;-82
2022/08/22 00:40:35;;;;;;;9.02;3.75;;;16.50;99.90;;;;;;5034699;28;20428;-82
2022/08/22 00:43:03;;;;;;;7.75;3.50;;;16.60;99.90;;;;;;5050589;28;20049;-82
2022/08/22 00:45:42;;;;;;;6.82;3.80;;;16.60;99.90;;;;;;5057693;28;20032;-84
2022/08/22 00:48:19;;;;;;;8.25;3.78;;;16.60;99.90;;;;;;5055357;28;20048;-83
2022/08/22 00:51:20;;;;;;;5.88;3.70;;;16.60;99.90;;;;;;5049603;28;20041;-83
2022/08/22 00:53:49;;;;;;;7.65;3.22;;;16.60;99.90;;;;;;5049517;28;20037;-83
2022/08/22 00:56:40;;;;;;;9.00;3.30;;;16.70;99.90;;;;;;5048813;28;20040;-84
2022/08/22 00:59:40;;;;;;;7.45;3.38;;;16.60;99.90;;;;;;5053947;28;20044;-84
2022/08/22 01:02:30;;;;;;;7.03;3.25;;;16.60;99.90;;;;;;5052819;28;20124;-84
2022/08/22 01:05:05;;;;;;;8.63;3.40;;;16.50;99.90;;;;;;5050599;28;20078;-85
2022/08/22 01:07:40;;;;;;;;;;;16.40;99.90;;;;;;5034791;28;20049;-84
2022/08/22 01:10:17;;;;;;;6.63;3.05;;;16.40;99.90;;;;;;5067972;28;20018;-85
2022/08/22 01:13:12;;;;;;;6.25;3.35;;;16.40;99.90;;;;;;5070769;28;20105;-83
2022/08/22 01:15:41;;;;;;;6.07;3.97;;;16.40;99.90;;;;;;5057859;28;20040;-84
2022/08/22 01:18:25;;;;;;;6.72;3.17;;;16.20;99.90;;;;;;5058310;28;20056;-84
2022/08/22 01:21:22;;;;;;;3.70;3.20;;;16.20;99.90;;;;;;5051085;28;20048;-83
2022/08/22 01:24:15;;;;;;;5.55;3.13;;;16.20;99.90;;;;;;5074292;28;20132;-84
2022/08/22 01:26:46;;;;;;;5.05;3.40;;;16.10;99.90;;;;;;5058086;28;20044;-84
2022/08/22 01:29:43;;;;;;;7.82;3.22;;;16.10;99.90;;;;;;5057777;28;20041;-84
2022/08/22 01:32:34;;;;;;;8.38;3.40;;;16.00;99.90;;;;;;5042143;28;20041;-82
2022/08/22 01:35:19;;;;;;;8.38;3.90;;;15.20;99.90;;;;;;5048088;28;20036;-83
2022/08/22 01:38:07;;;;;;;7.38;4.30;;;15.90;99.90;;;;;;5055269;28;20037;-82
2022/08/22 01:41:09;;;;;;;8.25;4.47;;;16.00;99.90;;;;;;5059034;28;20036;-83
2022/08/22 01:43:53;;;;;;;9.15;5.03;;;16.00;99.90;;;;;;5038045;28;20074;-83
2022/08/22 01:46:22;;;;;;;9.53;4.53;;;16.00;99.90;;;;;;5051667;28;20098;-82
2022/08/22 01:49:11;;;;;;;8.55;4.50;;;15.90;99.90;;;;;;5054306;28;20303;-82
2022/08/22 01:51:49;;;;;;;6.32;4.18;;;16.00;99.90;;;;;;5045531;28;20051;-83
2022/08/22 01:54:40;;;;;;;9.27;4.60;;;16.10;99.90;;;;;;5049558;28;20130;-83
2022/08/22 01:57:07;;;;;;;9.55;4.70;;;16.00;99.90;;;;;;5053735;28;20073;-82
2022/08/22 01:59:44;;;;;;;10.35;4.60;;;16.00;99.90;;;;;;5047302;28;20120;-82
2022/08/22 02:02:34;;;;;;;7.88;5.38;;;16.00;99.90;;;;;;5056835;28;20040;-82
2022/08/22 02:05:09;;;;;;;11.80;5.72;;;15.90;99.90;;;;;;5054271;28;20045;-81
2022/08/22 02:07:40;;;;;;;;;;;15.90;99.90;;;;;;5071460;28;20041;-82
2022/08/22 02:10:12;;;;;;;9.57;5.47;;;16.00;99.90;;;;;;5054299;28;19921;-81
2022/08/22 02:13:00;;;;;;;8.18;5.72;;;15.90;99.90;;;;;;5083927;28;20094;-81
2022/08/22 02:15:37;;;;;;;7.63;5.25;;;15.90;99.90;;;;;;5053616;28;20041;-82
2022/08/22 02:18:05;;;;;;;7.07;5.10;;;15.80;99.90;;;;;;5053427;28;20040;-82
2022/08/22 02:20:46;;;;;;;9.85;5.88;;;15.80;99.90;;;;;;5037071;28;20033;-82
2022/08/22 02:23:27;;;;;;;7.20;5.35;;;15.90;99.90;;;;;;5041316;28;20060;-82
2022/08/22 02:26:31;;;;;;;11.07;5.95;;;15.80;99.90;;;;;;5082743;28;20045;-82
2022/08/22 02:29:07;;;;;;;8.07;5.00;;;15.90;99.90;;;;;;5036747;28;20041;-82
2022/08/22 02:31:39;;;;;;;9.23;5.35;;;15.90;99.90;;;;;;5037216;28;20040;-83
2022/08/22 02:34:38;;;;;;;8.40;6.10;;;15.90;99.90;;;;;;5052920;28;20041;-82
2022/08/22 02:37:11;;;;;;;9.02;5.65;;;16.00;99.90;;;;;;5037055;28;20049;-83
2022/08/22 02:39:52;;;;;;;8.60;5.70;;;16.00;99.90;;;;;;5040961;28;20398;-83
2022/08/22 02:42:42;;;;;;;10.95;5.82;;;16.10;99.90;;;;;;5036034;28;20080;-83
2022/08/22 02:45:23;;;;;;;11.18;5.20;;;16.20;99.90;;;;;;5036507;28;20381;-82
2022/08/22 02:48:00;;;;;;;8.77;5.70;;;16.20;99.90;;;;;;5035776;28;20044;-81
2022/08/22 02:50:39;;;;;;;8.48;5.60;;;16.10;99.90;;;;;;5053287;28;20084;-81
2022/08/22 02:53:28;;;;;;;8.48;4.95;;;16.20;99.90;;;;;;5070274;28;20471;-82
2022/08/22 02:56:07;;;;;;;7.82;5.28;;;16.10;99.90;;;;;;5073292;28;20036;-81
2022/08/22 02:58:51;;;;;;;8.98;5.20;;;16.10;99.90;;;;;;5056703;28;20040;-82
2022/08/22 03:01:29;;;;;;;8.40;5.22;;;16.10;99.90;;;;;;5056388;28;20618;-82
2022/08/22 03:04:29;;;;;;;8.10;6.05;;;16.10;99.90;;;;;;5055974;28;20052;-82
2022/08/22 03:07:35;;;;;;;11.40;7.43;;;16.10;99.90;;;;;;5070877;28;20041;-82
2022/08/22 03:10:17;;;;;;;11.75;7.53;;;16.10;99.90;;;;;;5056090;28;20049;-82
2022/08/22 03:12:46;;;;;;;8.90;7.28;;;16.10;99.90;;;;;;5072882;28;20044;-83
2022/08/22 03:15:25;;;;;;;8.93;7.10;;;16.10;99.90;;;;;;5054304;28;20058;-83
2022/08/22 03:18:11;;;;;;;8.80;6.50;;;16.10;99.90;;;;;;5056257;28;20086;-83
2022/08/22 03:20:58;;;;;;;11.57;6.53;;;16.00;99.90;;;;;;5056528;28;20036;-82
2022/08/22 03:23:45;;;;;;;10.57;7.10;;;16.00;99.90;;;;;;5072247;28;20063;-83
2022/08/22 03:26:43;;;;;;;7.78;6.07;;;15.90;99.90;;;;;;5053094;28;20052;-82
2022/08/22 03:29:24;;;;;;;9.23;6.55;;;15.90;99.90;;;;;;5018210;28;20060;-82
2022/08/22 03:32:13;;;;;;;9.48;6.40;;;15.80;99.90;;;;;;5071655;28;20416;-82
2022/08/22 03:35:01;;;;;;;9.65;6.30;;;15.80;99.90;;;;;;5072064;28;20047;-83
2022/08/22 03:37:30;;;;;;;7.88;5.55;;;15.70;99.90;;;;;;5054240;28;20477;-83
2022/08/22 03:39:59;;;;;;;10.65;6.00;;;15.50;99.90;;;;;;5054734;28;20048;-83
2022/08/22 03:42:56;;;;;;;8.60;6.00;;;15.40;99.90;;;;;;5038197;28;20051;-81
2022/08/22 03:45:47;;;;;;;6.28;5.43;;;15.40;99.90;;;;;;5036286;28;20044;-81
2022/08/22 03:48:28;;;;;;;8.43;5.55;;;15.40;99.90;;;;;;5060679;28;20106;-82
2022/08/22 03:51:21;;;;;;;7.93;5.63;;;15.30;99.90;;;;;;5069009;28;20040;-82
2022/08/22 03:53:58;;;;;;;7.05;6.00;;;15.30;99.90;;;;;;5067827;28;20037;-83
2022/08/22 03:56:48;;;;;;;9.70;6.80;;;15.40;99.90;;;;;;5035148;28;20037;-82
2022/08/22 03:59:38;;;;;;;9.10;6.75;;;15.40;99.90;;;;;;5080767;28;20041;-81
2022/08/22 04:02:20;;;;;;;9.43;7.22;;;15.40;99.90;;;;;;5063854;28;20059;-82
2022/08/22 04:04:55;;;;;;;9.77;7.13;;;15.50;99.90;;;;;;5052882;28;20123;-81
2022/08/22 04:07:26;;;;;;;12.98;7.25;;;15.60;99.90;;;;;;5071308;28;20044;-79
2022/08/22 04:10:15;;;;;;;11.93;6.30;;;15.60;99.90;;;;;;5053588;28;20055;-82
2022/08/22 04:13:13;;;;;;;6.28;4.70;;;15.40;99.90;;;;;;5070462;28;20040;-82
2022/08/22 04:16:02;;;;;;;11.32;5.88;;;15.10;99.90;;;;;;5034613;28;20155;-82
2022/08/22 04:18:47;;;;;;;6.68;5.38;;;15.10;99.90;;;;;;5050475;28;20048;-80
2022/08/22 04:22:11;;;;;;;8.80;5.90;;;15.20;99.90;;;;;;5050815;28;20385;-80
2022/08/22 04:24:39;;;;;;;9.02;6.00;;;15.20;99.90;;;;;;5047729;28;20084;-81
2022/08/22 04:27:24;;;;;;;7.80;6.20;;;15.20;99.90;;;;;;5054786;28;20123;-83
2022/08/22 04:30:30;;;;;;;11.65;6.80;;;15.40;99.90;;;;;;5054400;28;20109;-83
2022/08/22 04:32:55;;;;;;;9.20;6.50;;;15.60;99.90;;;;;;5070993;28;20044;-82
2022/08/22 04:35:39;;;;;;;10.32;6.82;;;15.50;99.90;;;;;;5054987;28;20102;-83
2022/08/22 04:38:37;;;;;;;8.45;7.00;;;15.50;99.90;;;;;;5055808;28;20388;-82
2022/08/22 04:41:06;;;;;;;10.52;7.05;;;15.50;99.90;;;;;;5072295;28;20405;-83
2022/08/22 04:43:46;;;;;;;9.65;7.30;;;15.60;99.90;;;;;;5045830;28;20041;-83
2022/08/22 04:46:30;;;;;;;9.00;6.82;;;15.50;99.90;;;;;;5051353;28;20041;-83
2022/08/22 04:49:09;;;;;;;9.40;5.85;;;15.60;99.90;;;;;;5049886;28;20412;-84
2022/08/22 04:51:45;;;;;;;7.75;6.57;;;15.60;99.90;;;;;;5051663;28;20599;-84
2022/08/22 04:54:35;;;;;;;9.95;5.63;;;15.50;99.90;;;;;;5053018;28;20051;-84
2022/08/22 04:57:20;;;;;;;8.75;6.43;;;15.50;99.90;;;;;;5051187;28;20041;-82
2022/08/22 04:59:48;;;;;;;11.98;7.53;;;15.50;99.90;;;;;;5034526;28;20052;-84
2022/08/22 05:02:22;;;;;;;13.02;7.53;;;15.60;99.90;;;;;;5034448;28;20041;-83
2022/08/22 05:04:55;;;;;;;10.55;7.03;;;15.70;99.90;;;;;;5035471;28;20079;-83
2022/08/22 05:07:29;;;;;;;9.98;6.80;;;15.80;99.90;;;;;;5067465;28;20045;-83
2022/08/22 05:10:01;;;;;;;10.00;7.38;;;15.80;99.90;;;;;;5066776;28;20051;-83
2022/08/22 05:12:46;;;;;;;9.95;7.65;;;15.80;99.90;;;;;;5071900;28;20484;-83
2022/08/22 05:15:23;;;;;;;10.98;8.07;;;15.80;99.90;;;;;;5041499;28;20044;-83
2022/08/22 05:17:52;;;;;;;8.02;7.18;;;15.80;99.90;;;;;;5050390;28;20052;-78
2022/08/22 05:20:22;;;;;;;11.15;7.35;;;15.80;99.90;;;;;;5053786;28;20495;-80
2022/08/22 05:23:00;;;;;;;10.75;7.40;;;15.90;99.90;;;;;;5053302;28;20060;-81
2022/08/22 05:25:31;;;;;;;16.35;8.70;;;15.90;99.90;;;;;;5041588;28;20392;-81
2022/08/22 05:28:11;;;;;;;13.15;8.00;;;16.00;99.90;;;;;;5044674;28;20506;-81
2022/08/22 05:30:38;;;;;;;13.48;8.27;;;15.90;99.90;;;;;;5070777;28;20041;-82
2022/08/22 05:33:41;;;;;;;13.52;7.80;;;16.00;99.90;;;;;;5044035;28;20037;-82
2022/08/22 05:36:12;;;;;;;9.68;7.22;;;16.00;99.90;;;;;;4975729;28;20038;-81
2022/08/22 05:38:48;;;;;;;14.05;8.32;;;16.00;99.90;;;;;;5034772;28;20114;-82
2022/08/22 05:41:24;;;;;;;9.25;6.47;;;16.10;99.90;;;;;;5053979;28;20531;-82
2022/08/22 05:43:51;;;;;;;7.53;6.72;;;16.10;99.90;;;;;;5051841;28;20040;-82
2022/08/22 05:46:32;;;;;;;8.88;7.53;;;16.10;99.90;;;;;;5074321;28;20036;-82
2022/08/22 05:49:01;;;;;;;9.30;7.05;;;16.10;99.90;;;;;;5054946;28;20051;-83
2022/08/22 05:51:42;;;;;;;11.57;7.60;;;16.00;99.90;;;;;;5053867;28;20041;-82
2022/08/22 05:54:14;;;;;;;8.57;6.63;;;16.10;99.90;;;;;;5043580;28;20393;-81
2022/08/22 05:56:48;;;;;;;8.73;5.70;;;15.90;99.90;;;;;;5034138;28;20120;-83
2022/08/22 05:59:26;;;;;;;6.85;6.00;;;15.90;99.90;;;;;;5034108;28;20045;-82
2022/08/22 06:01:58;;;;;;;8.75;7.30;;;15.90;99.90;;;;;;5046348;28;20044;-82
2022/08/22 06:04:59;;;;;;;9.63;7.55;;;16.00;99.90;;;;;;5044963;28;20072;-82
2022/08/22 06:07:54;;;;;;;12.93;7.85;;;16.10;99.90;;;;;;5037015;28;20049;-82
2022/08/22 06:10:23;;;;;;;13.85;7.53;;;16.30;99.90;;;;;;5052502;28;20394;-81
2022/08/22 06:12:58;;;;;;;12.32;7.25;;;16.20;99.90;;;;;;5036885;28;20119;-80
2022/08/22 06:15:36;;;;;;;10.90;7.28;;;16.30;99.90;;;;;;5044354;28;20456;-81
2022/08/22 06:18:10;;;;;;;8.73;7.47;;;16.50;99.90;;;;;;5042257;28;20037;-82
2022/08/22 06:20:51;;;;;;;9.55;6.88;;;16.50;99.90;;;;;;5059396;28;20047;-85
2022/08/22 06:23:25;;;;;;;11.80;7.32;;;16.60;99.90;;;;;;5072104;28;20461;-82
2022/08/22 06:25:52;;;;;;;13.82;8.63;;;16.60;99.90;;;;;;5068299;28;20053;-83
2022/08/22 06:28:28;;;;;;;17.48;7.85;;;16.80;99.90;;;;;;5020635;28;20127;-83
2022/08/22 06:30:55;;;;;;;9.32;6.70;;;16.90;99.90;;;;;;5045801;28;20047;-82
2022/08/22 06:33:26;;;;;;;10.90;7.63;;;17.00;99.90;;;;;;5039708;28;20063;-82
2022/08/22 06:39:26;;;;;;;9.95;7.43;;;17.10;99.90;;;;;;5055533;28;20052;-83
2022/08/22 06:42:36;;;;;;;11.20;7.28;;;17.40;99.90;;;;;;5055707;28;20745;-80
2022/08/22 06:45:13;;;;;;;9.70;7.55;;;17.40;99.90;;;;;;5008963;28;20081;-81
2022/08/22 06:47:45;;;;;;;10.35;6.80;;;17.50;99.90;;;;;;5014231;28;20083;-81
2022/08/22 06:50:22;;;;;;;10.30;6.45;;;17.60;99.90;;;;;;5019331;28;20055;-83
2022/08/22 06:53:04;;;;;;;11.23;6.13;;;17.60;99.90;;;;;;5047441;28;20496;-81
2022/08/22 06:55:32;;;;;;;13.18;7.05;;;17.70;99.90;;;;;;5052735;28;20034;-81
2022/08/22 06:58:14;;;;;;;11.27;6.50;;;17.80;99.90;;;;;;5067634;28;20041;-81
2022/08/22 07:00:42;;;;;;;9.32;6.13;;;17.80;99.90;;;;;;5064832;28;20029;-81
2022/08/22 07:03:22;;;;;;;11.15;6.25;;;17.80;99.90;;;;;;5039904;28;20043;-81
2022/08/22 07:05:48;;;;;;;12.25;6.20;;;18.00;99.90;;;;;;5037407;28;20436;-81
2022/08/22 07:08:18;;;;;;;12.55;6.22;;;18.00;99.90;;;;;;5036419;28;20378;-80
2022/08/22 07:11:18;;;;;;;11.68;6.07;;;18.10;99.90;;;;;;5066284;28;20036;-80
2022/08/22 07:14:15;;;;;;;14.75;7.53;;;18.00;99.90;;;;;;5047466;28;20058;-80
2022/08/22 07:16:58;;;;;;;10.18;5.32;;;18.30;99.90;;;;;;5048776;28;20099;-80
2022/08/22 07:19:40;;;;;;;10.07;6.55;;;18.40;99.90;;;;;;5036369;28;20052;-80
2022/08/22 07:22:29;;;;;;;9.10;5.85;;;18.50;99.90;;;;;;5067573;28;20045;-80
2022/08/22 07:25:01;;;;;;;11.80;6.47;;;18.60;99.90;;;;;;5066905;28;20049;-80
2022/08/22 07:27:30;;;;;;;8.90;6.30;;;18.60;99.90;;;;;;5035381;28;20487;-80
2022/08/22 07:30:10;;;;;;;11.45;6.45;;;18.70;99.90;;;;;;5037905;28;20041;-80
2022/08/22 07:32:56;;;;;;;16.33;5.97;;;18.90;99.90;;;;;;5071905;28;20074;-80
2022/08/22 07:35:27;;;;;;;12.60;6.97;;;19.00;99.90;;;;;;5051119;28;20047;-78
2022/08/22 07:37:56;;;;;;;10.93;5.65;;;19.00;99.90;;;;;;5039119;28;20181;-81
2022/08/22 07:40:38;;;;;;;13.50;6.07;;;19.10;99.90;;;;;;5054400;28;20040;-81
2022/08/22 07:43:23;;;;;;;10.10;5.50;;;19.10;99.90;;;;;;5049524;28;20037;-81
2022/08/22 07:45:54;;;;;;;12.10;6.25;;;19.10;99.90;;;;;;5057403;28;20378;-81
2022/08/22 07:48:26;;;;;;;9.10;6.10;;;19.10;99.90;;;;;;5070697;28;20070;-79
2022/08/22 07:51:07;;;;;;;12.90;6.93;;;19.10;99.90;;;;;;5062728;28;20048;-80
2022/08/22 07:53:54;;;;;;;9.88;6.63;;;19.20;99.90;;;;;;5052825;28;20124;-80
2022/08/22 07:56:24;;;;;;;14.18;7.70;;;19.30;99.90;;;;;;5071274;28;20342;-79
2022/08/22 07:59:04;;;;;;;11.55;5.45;;;19.30;99.90;;;;;;5052492;28;20040;-80
2022/08/22 08:01:30;;;;;;;11.52;5.38;;;19.40;99.90;;;;;;5044436;28;20438;-81
2022/08/22 08:04:01;;;;;;;8.45;5.05;;;19.40;99.90;;;;;;5033432;28;20068;-81
2022/08/22 08:06:27;;;;;;;12.90;5.25;;;19.20;99.90;;;;;;5035106;28;20045;-80
2022/08/22 08:08:55;;;;;;;12.50;4.88;;;19.40;99.90;;;;;;5067973;28;20497;-80
2022/08/22 08:11:25;;;;;;;14.20;5.53;;;19.50;99.90;;;;;;5038324;28;20442;-80
2022/08/22 08:13:57;;;;;;;8.55;4.97;;;19.60;99.90;;;;;;5055467;28;20044;-82
2022/08/22 08:16:25;;;;;;;12.82;4.88;;;19.60;99.90;;;;;;5055656;28;20127;-81
2022/08/22 08:18:55;;;;;;;8.60;4.00;;;19.50;99.90;;;;;;5055528;28;20068;-83
2022/08/22 08:21:32;;;;;;;10.55;4.05;;;19.60;99.90;;;;;;5071328;28;20037;-82
2022/08/22 08:24:00;;;;;;;8.65;3.85;;;19.60;99.90;;;;;;5070762;28;21655;-81
2022/08/22 08:29:40;;;;;;;11.65;4.03;;;19.80;99.90;;;;;;5050543;28;20060;-83
2022/08/22 08:32:09;;;;;;;9.95;4.13;;;19.90;99.90;;;;;;5018518;28;20072;-82
2022/08/22 08:34:38;;;;;;;13.10;4.18;;;19.90;99.90;;;;;;5043093;28;20127;-82
2022/08/22 08:37:16;;;;;;;9.23;3.58;;;19.90;99.90;;;;;;5071451;28;20040;-84
2022/08/22 08:39:50;;;;;;;7.57;3.53;;;19.80;99.90;;;;;;5053423;28;20075;-82
2022/08/22 08:45:38;;;;;;;7.88;3.40;;;19.70;99.90;;;;;;5062468;28;20499;-84
2022/08/22 08:48:26;;;;;;;6.43;3.20;;;19.80;99.90;;;;;;5034781;28;20044;-83
2022/08/22 08:51:22;;;;;;;8.48;3.33;;;19.80;99.90;;;;;;5035173;28;20098;-82
2022/08/22 08:54:03;;;;;;;10.07;3.92;;;19.90;99.90;;;;;;5051457;28;20729;-83
2022/08/22 08:56:47;;;;;;;10.82;4.45;;;20.00;99.90;;;;;;5034706;28;20033;-83
2022/08/22 08:59:37;;;;;;;8.30;4.07;;;20.20;99.90;;;;;;5036203;28;20040;-81
2022/08/22 09:02:08;;;;;;;6.75;3.13;;;20.10;99.90;;;;;;5068131;28;20036;-85
2022/08/22 09:05:04;;;;;;;9.05;4.03;;;20.30;99.90;;;;;;5050464;28;20442;-83
2022/08/22 09:07:45;;;;;;;;;;;20.40;99.90;;;;;;5046296;28;20043;-84
2022/08/22 09:10:37;;;;;;;8.80;4.28;;;20.30;99.90;;;;;;5043768;28;20011;-85
2022/08/22 09:13:12;;;;;;;8.27;4.78;;;20.20;99.90;;;;;;5041477;28;20120;-82
2022/08/22 09:15:59;;;;;;;;;;;20.50;99.90;;;;;;5045675;28;20041;-84
2022/08/22 09:18:56;;;;;;;9.27;4.70;;;20.50;99.90;;;;;;5035935;28;19927;-82
2022/08/22 09:21:43;;;;;;;13.32;5.13;;;20.50;99.90;;;;;;5046904;28;20449;-83
2022/08/22 09:24:59;;;;;;;14.85;4.10;;;20.50;99.90;;;;;;5039014;28;20056;-83
2022/08/22 09:27:55;;;;;;;7.95;3.30;;;20.50;99.90;;;;;;5060496;28;20378;-82
2022/08/22 09:30:25;;;;;;;8.80;3.63;;;20.70;99.90;;;;;;5069420;28;20490;-82
2022/08/22 09:32:59;;;;;;;10.70;3.67;;;20.80;99.90;;;;;;5066547;28;20048;-81
2022/08/22 09:35:49;;;;;;;7.80;3.75;;;20.60;99.90;;;;;;5059019;28;20040;-82
2022/08/22 09:38:36;;;;;;;7.03;3.40;;;20.70;99.90;;;;;;5079947;28;20049;-81
2022/08/22 09:41:11;;;;;;;7.65;2.97;;;20.90;99.90;;;;;;5071525;28;20389;-81
2022/08/22 09:44:12;;;;;;;7.53;3.10;;;21.00;99.90;;;;;;5057266;28;20051;-79
2022/08/22 09:46:52;;;;;;;10.73;3.08;;;21.00;99.90;;;;;;5073900;28;20044;-81
2022/08/22 09:49:36;;;;;;;7.53;2.60;;;21.30;99.90;;;;;;5073398;28;20032;-80
2022/08/22 09:52:13;;;;;;;7.60;2.87;;;21.80;99.90;;;;;;5066404;28;20120;-81
2022/08/22 09:54:53;;;;;;;9.40;3.00;;;21.70;99.90;;;;;;5051006;28;20348;-80
2022/08/22 09:57:53;;;;;;;7.18;3.05;;;21.70;99.90;;;;;;5047052;28;20029;-84
2022/08/22 10:00:46;;;;;;;7.45;2.50;;;21.60;99.90;;;;;;5067172;28;20051;-82
2022/08/22 10:03:42;;;;;;;7.82;3.08;;;22.20;99.90;;;;;;5061249;28;20180;-80
2022/08/22 10:06:25;;;;;;;11.35;2.70;;;22.20;99.90;;;;;;5059599;28;20174;-82
2022/08/22 10:09:10;;;;;;;6.68;3.17;;;22.80;99.90;;;;;;5059387;28;20448;-81
2022/08/22 10:11:49;;;;;;;5.05;2.50;;;23.00;99.90;;;;;;5064943;28;20414;-80
2022/08/22 10:14:36;;;;;;;7.70;2.95;;;22.90;99.90;;;;;;5068764;28;20060;-80
2022/08/22 10:17:20;;;;;;;6.90;3.08;;;23.20;99.90;;;;;;5038825;28;20098;-81
2022/08/22 10:20:26;;;;;;;11.23;2.75;;;23.20;99.90;;;;;;5065872;28;20045;-81
2022/08/22 10:23:18;;;;;;;5.75;2.90;;;23.70;99.90;;;;;;5048230;28;20152;-80
2022/08/22 10:26:29;;;;;;;7.45;3.00;;;23.30;99.90;;;;;;5065592;28;20041;-81
2022/08/22 10:29:45;;;;;;;6.90;2.70;;;22.90;99.90;;;;;;5064995;28;20374;-80
2022/08/22 10:32:18;;;;;;;8.45;3.55;;;23.30;99.90;;;;;;5040575;28;20041;-81
2022/08/22 10:34:48;;;;;;;6.97;2.60;;;23.60;99.90;;;;;;5043017;28;20040;-81
2022/08/22 10:37:39;;;;;;;7.72;2.78;;;23.30;99.90;;;;;;5038194;28;20681;-80
2022/08/22 10:40:28;;;;;;;6.25;2.92;;;23.50;99.90;;;;;;5047445;28;20131;-80
2022/08/22 10:43:10;;;;;;;8.30;3.20;;;23.20;99.90;;;;;;5063042;28;20076;-81
2022/08/22 10:45:40;;;;;;;8.77;3.28;;;23.10;99.90;;;;;;5052627;28;20531;-81
2022/08/22 10:48:09;;;;;;;8.13;3.65;;;23.10;99.90;;;;;;5045334;28;20052;-81
2022/08/22 10:50:38;;;;;;;7.38;3.38;;;22.90;99.90;;;;;;5044060;28;20041;-80
2022/08/22 10:53:50;;;;;;;6.82;3.22;;;23.00;99.90;;;;;;5045298;28;20036;-81
2022/08/22 10:56:30;;;;;;;6.78;3.15;;;23.10;99.90;;;;;;5046984;28;20334;-82
2022/08/22 10:59:28;;;;;;;6.72;2.53;;;23.50;99.90;;;;;;5060541;28;20041;-80
2022/08/22 11:02:08;;;;;;;8.30;2.90;;;22.90;99.90;;;;;;5045707;28;20473;-82
2022/08/22 11:04:59;;;;;;;6.95;3.22;;;23.60;99.90;;;;;;5060986;28;20036;-80
2022/08/22 11:07:27;;;;;;;7.47;3.15;;;23.80;99.90;;;;;;5055684;28;20389;-83
2022/08/22 11:10:08;;;;;;;5.88;2.85;;;24.40;99.90;;;;;;5059229;28;20084;-82
2022/08/22 11:12:39;;;;;;;11.20;2.70;;;24.30;99.90;;;;;;5051070;28;20108;-82
2022/08/22 11:15:17;;;;;;;8.32;3.47;;;24.30;99.90;;;;;;5057468;28;20218;-82
2022/08/22 11:18:21;;;;;;;6.20;2.45;;;24.30;99.90;;;;;;5062262;28;20048;-82
2022/08/22 11:21:13;;;;;;;8.55;2.42;;;23.80;99.90;;;;;;5064935;28;20044;-81
2022/08/22 11:23:47;;;;;;;7.03;3.05;;;24.00;99.90;;;;;;5041794;28;20052;-81
2022/08/22 11:26:50;;;;;;;4.97;2.22;;;23.80;99.90;;;;;;5064697;28;20048;-80
2022/08/22 11:29:34;;;;;;;6.72;2.70;;;23.70;99.90;;;;;;5040854;28;20059;-81
2022/08/22 11:31:59;;;;;;;6.15;2.50;;;24.20;99.90;;;;;;5040993;28;20037;-80
2022/08/22 11:34:45;;;;;;;5.93;2.53;;;24.10;99.90;;;;;;5047888;28;20098;-81
2022/08/22 11:37:39;;;;;;;6.03;2.20;;;24.20;99.90;;;;;;5041176;28;20032;-81
2022/08/22 11:40:24;;;;;;;5.97;2.03;;;23.90;99.90;;;;;;5059144;28;20052;-81
2022/08/22 11:43:05;;;;;;;6.35;2.50;;;23.90;99.90;;;;;;5054552;28;20055;-80
2022/08/22 11:45:39;;;;;;;4.97;2.35;;;24.30;99.90;;;;;;5042009;28;20397;-81
2022/08/22 11:48:31;;;;;;;5.88;2.50;;;24.20;99.90;;;;;;5041957;28;20093;-82
2022/08/22 11:51:21;;;;;;;4.40;2.13;;;24.10;99.90;;;;;;5069490;28;20386;-81
2022/08/22 11:54:14;;;;;;;7.72;2.60;;;23.90;99.90;;;;;;5066684;28;20041;-80
2022/08/22 11:56:52;;;;;;;6.30;2.60;;;23.90;99.90;;;;;;5043580;28;20040;-80
2022/08/22 11:59:18;;;;;;;5.47;2.67;;;23.80;99.90;;;;;;5063890;28;20040;-82
2022/08/22 12:01:53;;;;;;;5.50;2.67;;;23.90;99.90;;;;;;5053929;28;20062;-81
2022/08/22 12:04:31;;;;;;;4.82;2.45;;;24.00;99.90;;;;;;5054624;28;20178;-81
2022/08/22 12:07:06;;;;;;;7.38;2.90;;;24.10;99.90;;;;;;5037868;28;20060;-82
2022/08/22 12:09:46;;;;;;;4.43;2.20;;;23.90;99.90;;;;;;5051440;28;20041;-82
2022/08/22 12:12:24;;;;;;;5.53;2.70;;;23.90;99.90;;;;;;5084143;28;20041;-81
2022/08/22 12:14:59;;;;;;;5.07;2.10;;;24.10;99.90;;;;;;5052485;28;20036;-79
2022/08/22 12:17:37;;;;;;;5.43;2.60;;;24.10;99.90;;;;;;5037868;28;20094;-84
2022/08/22 12:20:46;;;;;;;5.07;2.63;;;23.80;99.90;;;;;;5051068;28;20450;-84
2022/08/22 12:23:34;;;;;;;6.90;2.50;;;23.90;99.90;;;;;;5036803;28;20057;-86
2022/08/22 12:26:44;;;;;;;5.57;2.40;;;23.70;99.90;;;;;;5034041;28;20040;-82
2022/08/22 12:29:30;;;;;;;9.20;2.55;;;23.60;99.90;;;;;;5052251;28;20098;-83
2022/08/22 12:32:15;;;;;;;11.30;2.53;;;23.80;99.90;;;;;;5050606;28;20036;-79
2022/08/22 12:34:59;;;;;;;8.82;2.28;;;23.50;99.90;;;;;;5043361;28;20040;-81
2022/08/22 12:37:48;;;;;;;3.58;1.83;;;23.30;99.90;;;;;;5053950;28;20094;-84
2022/08/22 12:40:20;;;;;;;4.43;1.90;;;23.60;99.90;;;;;;5066056;28;20059;-81
2022/08/22 12:43:13;;;;;;;4.32;1.80;;;23.80;99.90;;;;;;5053663;28;20040;-82
2022/08/22 12:46:06;;;;;;;5.00;1.90;;;23.70;99.90;;;;;;5053960;28;20044;-82
2022/08/22 12:48:43;;;;;;;3.85;1.90;;;23.80;99.90;;;;;;5038702;28;20103;-81
2022/08/22 12:51:15;;;;;;;5.50;2.10;;;23.80;99.90;;;;;;5054904;28;20048;-83
2022/08/22 12:54:13;;;;;;;5.20;2.35;;;24.10;99.90;;;;;;5050547;28;20469;-81
2022/08/22 12:56:57;;;;;;;4.25;1.90;;;24.30;99.90;;;;;;5043292;28;20044;-81
2022/08/22 12:59:30;;;;;;;7.15;2.42;;;24.50;99.90;;;;;;5051120;28;20147;-80
2022/08/22 13:02:00;;;;;;;5.93;2.00;;;24.40;99.90;;;;;;5044646;28;20040;-81
2022/08/22 13:04:31;;;;;;;4.55;2.42;;;24.50;99.90;;;;;;5034542;28;20098;-80
2022/08/22 13:07:42;;;;;;;3.97;2.13;;;25.00;99.90;;;;;;5033713;28;20070;-82
2022/08/22 13:10:37;;;;;;;5.75;2.10;;;24.90;99.90;;;;;;5050904;28;20063;-81
2022/08/22 13:13:03;;;;;;;;;;;24.70;99.90;;;;;;5057767;28;20107;-82
2022/08/22 13:15:34;;;;;;;5.82;1.90;;;25.10;99.90;;;;;;5032405;28;19916;-82
2022/08/22 13:18:07;;;;;;;7.35;2.67;;;25.40;99.90;;;;;;5021476;28;20044;-80
2022/08/22 13:20:36;;;;;;;5.45;2.38;;;25.50;99.90;;;;;;5038982;28;20043;-82
2022/08/22 13:23:26;;;;;;;3.60;1.80;;;25.30;99.90;;;;;;5057352;28;20063;-81
2022/08/22 13:26:02;;;;;;;7.05;2.53;;;25.50;99.90;;;;;;5056911;28;20090;-82
2022/08/22 13:28:34;;;;;;;5.70;2.45;;;25.20;99.90;;;;;;5057675;28;20124;-82
2022/08/22 13:31:02;;;;;;;3.58;2.03;;;25.90;99.90;;;;;;5056385;28;20504;-82
2022/08/22 13:33:37;;;;;;;5.20;1.80;;;26.20;99.90;;;;;;5057070;28;20041;-81
2022/08/22 13:36:13;;;;;;;3.00;1.70;;;26.20;99.90;;;;;;5039611;28;20373;-83
2022/08/22 13:39:14;;;;;;;5.25;2.05;;;26.00;99.90;;;;;;5055526;28;20046;-81
2022/08/22 13:41:52;;;;;;;3.47;1.83;;;25.90;99.90;;;;;;5066499;28;20497;-82
2022/08/22 13:44:25;;;;;;;3.45;2.25;;;25.90;99.90;;;;;;5037203;28;20512;-81
2022/08/22 13:46:54;;;;;;;4.18;2.20;;;26.20;99.90;;;;;;5040573;28;20120;-81
2022/08/22 13:49:31;;;;;;;5.68;2.20;;;26.40;99.90;;;;;;5053744;28;20124;-82
2022/08/22 13:52:31;;;;;;;5.80;2.08;;;26.40;99.90;;;;;;5055666;28;20091;-81
2022/08/22 13:55:22;;;;;;;3.80;1.90;;;26.10;99.90;;;;;;5053433;28;20461;-81
2022/08/22 13:58:04;;;;;;;3.65;2.17;;;26.40;99.90;;;;;;5040978;28;20040;-81
2022/08/22 14:00:51;;;;;;;4.70;2.20;;;26.40;99.90;;;;;;5036701;28;20052;-81
2022/08/22 14:03:44;;;;;;;7.82;2.40;;;26.90;99.90;;;;;;5036718;28;20041;-82
2022/08/22 14:06:36;;;;;;;3.95;2.00;;;26.10;99.90;;;;;;5039705;28;20362;-82
2022/08/22 14:09:12;;;;;;;5.05;2.03;;;26.00;99.90;;;;;;5069825;28;20131;-81
2022/08/22 14:11:44;;;;;;;5.80;2.63;;;25.70;99.90;;;;;;5043265;28;20119;-81